sensor_id;sensor_type;location;lat;lon;timestamp;P1;durP1;ratioP1;P2;durP2;ratioP2
43990;SDS011;29654;50.784;20.604;2022-08-19T00:02:18;8.80;;;8.10;;
43990;SDS011;29654;50.784;20.604;2022-08-19T00:07:22;9.15;;;8.25;;
43990;SDS011;29654;50.784;20.604;2022-08-19T00:12:25;8.57;;;7.80;;
43990;SDS011;29654;50.784;20.604;2022-08-19T00:17:28;8.75;;;8.05;;
43990;SDS011;29654;50.784;20.604;2022-08-19T00:22:32;8.50;;;7.70;;
43990;SDS011;29654;50.784;20.604;2022-08-19T00:27:35;9.13;;;8.27;;
43990;SDS011;29654;50.784;20.604;2022-08-19T00:32:38;9.02;;;8.23;;
43990;SDS011;29654;50.784;20.604;2022-08-19T00:37:42;9.40;;;8.50;;
43990;SDS011;29654;50.784;20.604;2022-08-19T00:42:45;9.45;;;8.45;;
43990;SDS011;29654;50.784;20.604;2022-08-19T00:47:48;8.15;;;7.45;;
43990;SDS011;29654;50.784;20.604;2022-08-19T00:52:53;9.05;;;8.15;;
43990;SDS011;29654;50.784;20.604;2022-08-19T00:57:56;8.90;;;8.20;;
43990;SDS011;29654;50.784;20.604;2022-08-19T01:03:05;9.80;;;8.77;;
43990;SDS011;29654;50.784;20.604;2022-08-19T01:08:11;8.77;;;7.88;;
43990;SDS011;29654;50.784;20.604;2022-08-19T01:13:17;9.07;;;8.18;;
43990;SDS011;29654;50.784;20.604;2022-08-19T01:18:24;8.68;;;7.90;;
43990;SDS011;29654;50.784;20.604;2022-08-19T01:23:30;8.82;;;8.13;;
43990;SDS011;29654;50.784;20.604;2022-08-19T01:28:44;8.45;;;7.70;;
43990;SDS011;29654;50.784;20.604;2022-08-19T01:33:50;8.98;;;8.18;;
43990;SDS011;29654;50.784;20.604;2022-08-19T01:38:58;9.05;;;8.35;;
43990;SDS011;29654;50.784;20.604;2022-08-19T01:44:03;8.95;;;8.15;;
43990;SDS011;29654;50.784;20.604;2022-08-19T01:49:07;9.45;;;8.55;;
43990;SDS011;29654;50.784;20.604;2022-08-19T01:54:12;9.00;;;8.05;;
43990;SDS011;29654;50.784;20.604;2022-08-19T01:59:18;8.50;;;7.80;;
43990;SDS011;29654;50.784;20.604;2022-08-19T02:04:24;8.55;;;7.82;;
43990;SDS011;29654;50.784;20.604;2022-08-19T02:09:29;9.60;;;8.70;;
43990;SDS011;29654;50.784;20.604;2022-08-19T02:14:33;8.75;;;7.82;;
43990;SDS011;29654;50.784;20.604;2022-08-19T02:19:36;9.32;;;8.52;;
43990;SDS011;29654;50.784;20.604;2022-08-19T02:24:40;8.88;;;8.10;;
43990;SDS011;29654;50.784;20.604;2022-08-19T02:29:43;8.50;;;7.70;;
43990;SDS011;29654;50.784;20.604;2022-08-19T02:34:48;8.85;;;7.93;;
43990;SDS011;29654;50.784;20.604;2022-08-19T02:39:52;8.48;;;7.78;;
43990;SDS011;29654;50.784;20.604;2022-08-19T02:44:55;8.63;;;7.88;;
43990;SDS011;29654;50.784;20.604;2022-08-19T02:49:58;8.70;;;7.85;;
43990;SDS011;29654;50.784;20.604;2022-08-19T02:55:04;8.93;;;8.23;;
43990;SDS011;29654;50.784;20.604;2022-08-19T03:00:10;8.80;;;7.90;;
43990;SDS011;29654;50.784;20.604;2022-08-19T03:05:14;8.98;;;8.30;;
43990;SDS011;29654;50.784;20.604;2022-08-19T03:10:18;8.27;;;7.57;;
43990;SDS011;29654;50.784;20.604;2022-08-19T03:15:21;8.55;;;7.93;;
43990;SDS011;29654;50.784;20.604;2022-08-19T03:20:24;8.77;;;7.97;;
43990;SDS011;29654;50.784;20.604;2022-08-19T03:25:28;8.77;;;7.93;;
43990;SDS011;29654;50.784;20.604;2022-08-19T03:30:31;8.75;;;8.05;;
43990;SDS011;29654;50.784;20.604;2022-08-19T03:35:34;8.63;;;7.82;;
43990;SDS011;29654;50.784;20.604;2022-08-19T03:40:39;8.20;;;7.50;;
43990;SDS011;29654;50.784;20.604;2022-08-19T03:45:43;8.88;;;8.10;;
43990;SDS011;29654;50.784;20.604;2022-08-19T03:50:46;8.82;;;8.02;;
43990;SDS011;29654;50.784;20.604;2022-08-19T03:55:51;8.32;;;7.70;;
43990;SDS011;29654;50.784;20.604;2022-08-19T04:00:55;9.07;;;8.05;;
43990;SDS011;29654;50.784;20.604;2022-08-19T04:05:58;8.45;;;7.25;;
43990;SDS011;29654;50.784;20.604;2022-08-19T04:11:07;8.73;;;8.02;;
43990;SDS011;29654;50.784;20.604;2022-08-19T04:16:11;9.27;;;8.48;;
43990;SDS011;29654;50.784;20.604;2022-08-19T04:21:15;9.40;;;8.60;;
43990;SDS011;29654;50.784;20.604;2022-08-19T04:26:22;8.95;;;8.23;;
43990;SDS011;29654;50.784;20.604;2022-08-19T04:31:28;9.30;;;8.57;;
43990;SDS011;29654;50.784;20.604;2022-08-19T04:36:36;9.27;;;8.48;;
43990;SDS011;29654;50.784;20.604;2022-08-19T04:41:43;9.18;;;8.27;;
43990;SDS011;29654;50.784;20.604;2022-08-19T04:47:03;9.48;;;8.57;;
43990;SDS011;29654;50.784;20.604;2022-08-19T04:52:06;9.50;;;8.70;;
43990;SDS011;29654;50.784;20.604;2022-08-19T04:57:10;10.55;;;9.52;;
43990;SDS011;29654;50.784;20.604;2022-08-19T05:02:13;9.45;;;8.75;;
43990;SDS011;29654;50.784;20.604;2022-08-19T05:07:16;9.63;;;8.32;;
43990;SDS011;29654;50.784;20.604;2022-08-19T05:12:21;12.32;;;10.15;;
43990;SDS011;29654;50.784;20.604;2022-08-19T05:17:24;10.68;;;9.75;;
43990;SDS011;29654;50.784;20.604;2022-08-19T05:22:28;10.57;;;9.68;;
43990;SDS011;29654;50.784;20.604;2022-08-19T05:27:37;10.48;;;9.48;;
43990;SDS011;29654;50.784;20.604;2022-08-19T05:32:40;9.60;;;8.80;;
43990;SDS011;29654;50.784;20.604;2022-08-19T05:37:43;10.43;;;9.63;;
43990;SDS011;29654;50.784;20.604;2022-08-19T05:42:47;11.00;;;9.90;;
43990;SDS011;29654;50.784;20.604;2022-08-19T05:47:50;11.98;;;10.88;;
43990;SDS011;29654;50.784;20.604;2022-08-19T05:52:53;10.90;;;9.90;;
43990;SDS011;29654;50.784;20.604;2022-08-19T05:57:57;8.45;;;7.75;;
43990;SDS011;29654;50.784;20.604;2022-08-19T06:03:02;9.82;;;9.02;;
43990;SDS011;29654;50.784;20.604;2022-08-19T06:08:05;9.65;;;8.75;;
43990;SDS011;29654;50.784;20.604;2022-08-19T06:13:09;9.43;;;8.63;;
43990;SDS011;29654;50.784;20.604;2022-08-19T06:18:12;9.27;;;8.30;;
43990;SDS011;29654;50.784;20.604;2022-08-19T06:23:15;10.60;;;9.70;;
43990;SDS011;29654;50.784;20.604;2022-08-19T06:28:20;8.93;;;8.20;;
43990;SDS011;29654;50.784;20.604;2022-08-19T06:33:24;9.45;;;8.63;;
43990;SDS011;29654;50.784;20.604;2022-08-19T06:38:26;8.30;;;7.70;;
43990;SDS011;29654;50.784;20.604;2022-08-19T06:43:30;9.73;;;8.95;;
43990;SDS011;29654;50.784;20.604;2022-08-19T06:48:33;9.50;;;7.68;;
43990;SDS011;29654;50.784;20.604;2022-08-19T06:53:37;8.43;;;7.72;;
43990;SDS011;29654;50.784;20.604;2022-08-19T06:58:42;8.52;;;7.88;;
43990;SDS011;29654;50.784;20.604;2022-08-19T07:03:45;9.85;;;8.60;;
43990;SDS011;29654;50.784;20.604;2022-08-19T07:08:48;8.73;;;7.93;;
43990;SDS011;29654;50.784;20.604;2022-08-19T07:13:53;8.35;;;7.55;;
43990;SDS011;29654;50.784;20.604;2022-08-19T07:18:56;8.77;;;7.93;;
43990;SDS011;29654;50.784;20.604;2022-08-19T07:23:59;8.57;;;7.85;;
43990;SDS011;29654;50.784;20.604;2022-08-19T07:29:03;7.18;;;6.68;;
43990;SDS011;29654;50.784;20.604;2022-08-19T07:34:08;7.35;;;6.70;;
43990;SDS011;29654;50.784;20.604;2022-08-19T07:39:14;7.13;;;6.60;;
43990;SDS011;29654;50.784;20.604;2022-08-19T07:44:22;7.28;;;6.63;;
43990;SDS011;29654;50.784;20.604;2022-08-19T07:49:25;7.78;;;7.00;;
43990;SDS011;29654;50.784;20.604;2022-08-19T07:54:30;7.85;;;7.10;;
43990;SDS011;29654;50.784;20.604;2022-08-19T07:59:37;9.60;;;7.00;;
43990;SDS011;29654;50.784;20.604;2022-08-19T08:04:40;6.93;;;6.35;;
43990;SDS011;29654;50.784;20.604;2022-08-19T08:10:00;7.47;;;6.75;;
43990;SDS011;29654;50.784;20.604;2022-08-19T08:15:08;6.50;;;5.93;;
43990;SDS011;29654;50.784;20.604;2022-08-19T08:20:16;6.78;;;6.18;;
43990;SDS011;29654;50.784;20.604;2022-08-19T08:25:21;6.68;;;6.03;;
43990;SDS011;29654;50.784;20.604;2022-08-19T08:30:27;7.22;;;6.47;;
43990;SDS011;29654;50.784;20.604;2022-08-19T08:35:33;6.45;;;5.95;;
43990;SDS011;29654;50.784;20.604;2022-08-19T08:40:38;6.05;;;5.65;;
43990;SDS011;29654;50.784;20.604;2022-08-19T08:45:49;5.68;;;5.28;;
43990;SDS011;29654;50.784;20.604;2022-08-19T08:50:58;7.00;;;5.68;;
43990;SDS011;29654;50.784;20.604;2022-08-19T08:56:04;6.30;;;5.82;;
43990;SDS011;29654;50.784;20.604;2022-08-19T09:01:10;7.00;;;6.30;;
43990;SDS011;29654;50.784;20.604;2022-08-19T09:06:14;7.00;;;6.40;;
43990;SDS011;29654;50.784;20.604;2022-08-19T09:11:30;6.43;;;5.93;;
43990;SDS011;29654;50.784;20.604;2022-08-19T09:16:49;7.93;;;5.65;;
43990;SDS011;29654;50.784;20.604;2022-08-19T09:21:53;6.47;;;5.97;;
43990;SDS011;29654;50.784;20.604;2022-08-19T09:26:55;6.35;;;5.93;;
43990;SDS011;29654;50.784;20.604;2022-08-19T09:32:00;7.65;;;6.85;;
43990;SDS011;29654;50.784;20.604;2022-08-19T09:37:04;7.50;;;6.55;;
43990;SDS011;29654;50.784;20.604;2022-08-19T09:42:07;7.40;;;6.70;;
43990;SDS011;29654;50.784;20.604;2022-08-19T09:47:14;7.18;;;6.47;;
43990;SDS011;29654;50.784;20.604;2022-08-19T09:52:16;6.85;;;6.35;;
43990;SDS011;29654;50.784;20.604;2022-08-19T09:57:20;7.18;;;6.47;;
43990;SDS011;29654;50.784;20.604;2022-08-19T10:02:24;7.32;;;6.75;;
43990;SDS011;29654;50.784;20.604;2022-08-19T10:07:29;6.90;;;6.30;;
43990;SDS011;29654;50.784;20.604;2022-08-19T10:12:32;6.75;;;6.28;;
43990;SDS011;29654;50.784;20.604;2022-08-19T10:17:36;7.88;;;6.80;;
43990;SDS011;29654;50.784;20.604;2022-08-19T10:22:39;7.57;;;6.97;;
43990;SDS011;29654;50.784;20.604;2022-08-19T10:27:42;7.50;;;6.85;;
43990;SDS011;29654;50.784;20.604;2022-08-19T10:32:47;7.78;;;7.18;;
43990;SDS011;29654;50.784;20.604;2022-08-19T10:37:49;7.70;;;6.88;;
43990;SDS011;29654;50.784;20.604;2022-08-19T10:42:52;6.75;;;6.22;;
43990;SDS011;29654;50.784;20.604;2022-08-19T10:47:57;7.80;;;7.13;;
43990;SDS011;29654;50.784;20.604;2022-08-19T10:53:02;6.85;;;6.30;;
43990;SDS011;29654;50.784;20.604;2022-08-19T10:58:12;7.70;;;7.03;;
43990;SDS011;29654;50.784;20.604;2022-08-19T11:03:19;7.50;;;6.82;;
43990;SDS011;29654;50.784;20.604;2022-08-19T11:08:22;8.05;;;7.35;;
43990;SDS011;29654;50.784;20.604;2022-08-19T11:13:27;8.18;;;7.57;;
43990;SDS011;29654;50.784;20.604;2022-08-19T11:18:31;8.20;;;7.60;;
43990;SDS011;29654;50.784;20.604;2022-08-19T11:23:34;8.45;;;7.78;;
43990;SDS011;29654;50.784;20.604;2022-08-19T11:28:37;8.73;;;8.13;;
43990;SDS011;29654;50.784;20.604;2022-08-19T11:33:41;7.53;;;7.00;;
43990;SDS011;29654;50.784;20.604;2022-08-19T11:38:45;8.25;;;7.57;;
43990;SDS011;29654;50.784;20.604;2022-08-19T11:43:50;8.32;;;7.72;;
43990;SDS011;29654;50.784;20.604;2022-08-19T11:48:57;7.72;;;7.22;;
43990;SDS011;29654;50.784;20.604;2022-08-19T11:54:01;9.13;;;8.32;;
43990;SDS011;29654;50.784;20.604;2022-08-19T11:59:05;8.05;;;7.45;;
43990;SDS011;29654;50.784;20.604;2022-08-19T12:04:10;7.70;;;7.20;;
43990;SDS011;29654;50.784;20.604;2022-08-19T12:09:13;8.18;;;7.53;;
43990;SDS011;29654;50.784;20.604;2022-08-19T12:14:16;7.68;;;7.18;;
43990;SDS011;29654;50.784;20.604;2022-08-19T12:19:20;8.07;;;7.43;;
43990;SDS011;29654;50.784;20.604;2022-08-19T12:24:24;8.07;;;7.47;;
43990;SDS011;29654;50.784;20.604;2022-08-19T12:29:27;7.43;;;6.93;;
43990;SDS011;29654;50.784;20.604;2022-08-19T12:34:32;6.68;;;6.07;;
43990;SDS011;29654;50.784;20.604;2022-08-19T12:39:38;7.60;;;7.10;;
43990;SDS011;29654;50.784;20.604;2022-08-19T12:44:43;7.93;;;7.32;;
43990;SDS011;29654;50.784;20.604;2022-08-19T12:49:48;8.60;;;7.88;;
43990;SDS011;29654;50.784;20.604;2022-08-19T12:54:51;7.90;;;7.30;;
43990;SDS011;29654;50.784;20.604;2022-08-19T12:59:56;9.18;;;8.30;;
43990;SDS011;29654;50.784;20.604;2022-08-19T13:05:00;7.38;;;6.82;;
43990;SDS011;29654;50.784;20.604;2022-08-19T13:10:04;7.60;;;7.00;;
43990;SDS011;29654;50.784;20.604;2022-08-19T13:15:08;7.25;;;6.65;;
43990;SDS011;29654;50.784;20.604;2022-08-19T13:20:14;11.55;;;7.68;;
43990;SDS011;29654;50.784;20.604;2022-08-19T13:25:20;8.02;;;7.38;;
43990;SDS011;29654;50.784;20.604;2022-08-19T13:30:23;7.82;;;7.22;;
43990;SDS011;29654;50.784;20.604;2022-08-19T13:35:46;8.20;;;7.55;;
43990;SDS011;29654;50.784;20.604;2022-08-19T13:40:51;6.50;;;6.10;;
43990;SDS011;29654;50.784;20.604;2022-08-19T13:45:56;7.80;;;7.15;;
43990;SDS011;29654;50.784;20.604;2022-08-19T13:51:00;7.55;;;6.95;;
43990;SDS011;29654;50.784;20.604;2022-08-19T13:56:04;7.13;;;6.65;;
43990;SDS011;29654;50.784;20.604;2022-08-19T14:01:08;8.27;;;6.97;;
43990;SDS011;29654;50.784;20.604;2022-08-19T14:06:13;7.85;;;6.93;;
43990;SDS011;29654;50.784;20.604;2022-08-19T14:11:19;8.65;;;7.10;;
43990;SDS011;29654;50.784;20.604;2022-08-19T14:16:23;7.22;;;6.63;;
43990;SDS011;29654;50.784;20.604;2022-08-19T14:21:28;7.68;;;7.07;;
43990;SDS011;29654;50.784;20.604;2022-08-19T14:26:32;7.68;;;6.80;;
43990;SDS011;29654;50.784;20.604;2022-08-19T14:31:34;7.75;;;7.00;;
43990;SDS011;29654;50.784;20.604;2022-08-19T14:36:39;7.05;;;6.50;;
43990;SDS011;29654;50.784;20.604;2022-08-19T14:41:43;8.00;;;7.30;;
43990;SDS011;29654;50.784;20.604;2022-08-19T14:46:47;8.05;;;7.35;;
43990;SDS011;29654;50.784;20.604;2022-08-19T14:51:51;7.80;;;6.95;;
43990;SDS011;29654;50.784;20.604;2022-08-19T14:56:55;8.10;;;7.50;;
43990;SDS011;29654;50.784;20.604;2022-08-19T15:01:57;7.15;;;6.55;;
43990;SDS011;29654;50.784;20.604;2022-08-19T15:07:02;7.18;;;6.57;;
43990;SDS011;29654;50.784;20.604;2022-08-19T15:12:06;7.85;;;7.15;;
43990;SDS011;29654;50.784;20.604;2022-08-19T15:17:10;7.93;;;7.13;;
43990;SDS011;29654;50.784;20.604;2022-08-19T15:22:15;7.25;;;6.57;;
43990;SDS011;29654;50.784;20.604;2022-08-19T15:27:20;7.43;;;6.80;;
43990;SDS011;29654;50.784;20.604;2022-08-19T15:32:23;6.95;;;6.45;;
43990;SDS011;29654;50.784;20.604;2022-08-19T15:37:29;6.68;;;6.00;;
43990;SDS011;29654;50.784;20.604;2022-08-19T15:42:33;8.68;;;7.97;;
43990;SDS011;29654;50.784;20.604;2022-08-19T15:47:38;8.88;;;7.97;;
43990;SDS011;29654;50.784;20.604;2022-08-19T15:52:47;8.23;;;7.53;;
43990;SDS011;29654;50.784;20.604;2022-08-19T15:57:52;7.40;;;6.80;;
43990;SDS011;29654;50.784;20.604;2022-08-19T16:03:13;7.80;;;6.90;;
43990;SDS011;29654;50.784;20.604;2022-08-19T16:08:35;7.80;;;7.15;;
43990;SDS011;29654;50.784;20.604;2022-08-19T16:13:39;7.47;;;6.47;;
43990;SDS011;29654;50.784;20.604;2022-08-19T16:18:41;8.13;;;7.00;;
43990;SDS011;29654;50.784;20.604;2022-08-19T16:23:48;6.80;;;6.22;;
43990;SDS011;29654;50.784;20.604;2022-08-19T16:28:51;6.60;;;6.10;;
43990;SDS011;29654;50.784;20.604;2022-08-19T16:33:54;7.00;;;6.40;;
43990;SDS011;29654;50.784;20.604;2022-08-19T16:38:58;6.85;;;6.30;;
43990;SDS011;29654;50.784;20.604;2022-08-19T16:44:03;7.05;;;6.47;;
43990;SDS011;29654;50.784;20.604;2022-08-19T16:49:06;7.47;;;6.45;;
43990;SDS011;29654;50.784;20.604;2022-08-19T16:54:11;6.57;;;5.97;;
43990;SDS011;29654;50.784;20.604;2022-08-19T16:59:14;7.50;;;5.55;;
43990;SDS011;29654;50.784;20.604;2022-08-19T17:04:17;6.43;;;5.82;;
43990;SDS011;29654;50.784;20.604;2022-08-19T17:09:22;6.43;;;5.97;;
43990;SDS011;29654;50.784;20.604;2022-08-19T17:14:24;6.03;;;5.63;;
43990;SDS011;29654;50.784;20.604;2022-08-19T17:19:27;6.18;;;5.60;;
43990;SDS011;29654;50.784;20.604;2022-08-19T17:24:32;6.25;;;5.68;;
43990;SDS011;29654;50.784;20.604;2022-08-19T17:29:35;6.45;;;5.80;;
43990;SDS011;29654;50.784;20.604;2022-08-19T17:34:38;6.28;;;5.20;;
43990;SDS011;29654;50.784;20.604;2022-08-19T17:39:42;6.10;;;5.70;;
43990;SDS011;29654;50.784;20.604;2022-08-19T17:44:45;7.85;;;7.05;;
43990;SDS011;29654;50.784;20.604;2022-08-19T17:49:48;9.35;;;7.40;;
43990;SDS011;29654;50.784;20.604;2022-08-19T17:54:52;8.27;;;7.57;;
43990;SDS011;29654;50.784;20.604;2022-08-19T17:59:55;8.50;;;7.65;;
43990;SDS011;29654;50.784;20.604;2022-08-19T18:04:59;8.10;;;7.38;;
43990;SDS011;29654;50.784;20.604;2022-08-19T18:10:03;5.35;;;4.75;;
43990;SDS011;29654;50.784;20.604;2022-08-19T18:15:07;8.02;;;7.32;;
43990;SDS011;29654;50.784;20.604;2022-08-19T18:20:13;7.25;;;6.65;;
43990;SDS011;29654;50.784;20.604;2022-08-19T18:25:20;7.43;;;6.82;;
43990;SDS011;29654;50.784;20.604;2022-08-19T18:30:25;7.72;;;7.05;;
43990;SDS011;29654;50.784;20.604;2022-08-19T18:35:33;8.07;;;6.30;;
43990;SDS011;29654;50.784;20.604;2022-08-19T18:40:39;7.32;;;6.72;;
43990;SDS011;29654;50.784;20.604;2022-08-19T18:46:00;8.38;;;7.68;;
43990;SDS011;29654;50.784;20.604;2022-08-19T18:51:20;7.53;;;6.82;;
43990;SDS011;29654;50.784;20.604;2022-08-19T18:56:26;8.63;;;7.82;;
43990;SDS011;29654;50.784;20.604;2022-08-19T19:01:32;8.50;;;7.60;;
43990;SDS011;29654;50.784;20.604;2022-08-19T19:06:38;7.85;;;7.15;;
43990;SDS011;29654;50.784;20.604;2022-08-19T19:11:45;10.43;;;9.38;;
43990;SDS011;29654;50.784;20.604;2022-08-19T19:16:50;9.07;;;8.27;;
43990;SDS011;29654;50.784;20.604;2022-08-19T19:21:54;11.43;;;10.45;;
43990;SDS011;29654;50.784;20.604;2022-08-19T19:27:00;11.05;;;9.82;;
43990;SDS011;29654;50.784;20.604;2022-08-19T19:32:08;9.63;;;8.77;;
43990;SDS011;29654;50.784;20.604;2022-08-19T19:37:18;8.93;;;8.13;;
43990;SDS011;29654;50.784;20.604;2022-08-19T19:42:23;8.13;;;7.32;;
43990;SDS011;29654;50.784;20.604;2022-08-19T19:47:26;7.53;;;6.78;;
43990;SDS011;29654;50.784;20.604;2022-08-19T19:52:30;7.95;;;7.13;;
43990;SDS011;29654;50.784;20.604;2022-08-19T19:57:34;11.50;;;10.48;;
43990;SDS011;29654;50.784;20.604;2022-08-19T20:02:39;12.38;;;11.18;;
43990;SDS011;29654;50.784;20.604;2022-08-19T20:07:43;10.02;;;9.13;;
43990;SDS011;29654;50.784;20.604;2022-08-19T20:13:04;9.52;;;8.73;;
43990;SDS011;29654;50.784;20.604;2022-08-19T20:18:09;8.23;;;7.47;;
43990;SDS011;29654;50.784;20.604;2022-08-19T20:23:14;7.28;;;6.53;;
43990;SDS011;29654;50.784;20.604;2022-08-19T20:28:20;8.18;;;7.55;;
43990;SDS011;29654;50.784;20.604;2022-08-19T20:33:25;8.57;;;7.78;;
43990;SDS011;29654;50.784;20.604;2022-08-19T20:38:30;9.20;;;7.60;;
43990;SDS011;29654;50.784;20.604;2022-08-19T20:43:35;9.60;;;7.63;;
43990;SDS011;29654;50.784;20.604;2022-08-19T20:48:39;8.52;;;7.75;;
43990;SDS011;29654;50.784;20.604;2022-08-19T20:53:43;7.93;;;7.25;;
43990;SDS011;29654;50.784;20.604;2022-08-19T20:58:47;7.80;;;7.20;;
43990;SDS011;29654;50.784;20.604;2022-08-19T21:03:51;7.28;;;6.57;;
43990;SDS011;29654;50.784;20.604;2022-08-19T21:08:54;6.30;;;5.80;;
43990;SDS011;29654;50.784;20.604;2022-08-19T21:13:58;7.88;;;6.45;;
43990;SDS011;29654;50.784;20.604;2022-08-19T21:19:02;8.02;;;7.32;;
43990;SDS011;29654;50.784;20.604;2022-08-19T21:24:05;6.60;;;6.05;;
43990;SDS011;29654;50.784;20.604;2022-08-19T21:29:09;6.60;;;6.10;;
43990;SDS011;29654;50.784;20.604;2022-08-19T21:34:12;7.13;;;6.25;;
43990;SDS011;29654;50.784;20.604;2022-08-19T21:39:15;7.80;;;7.10;;
43990;SDS011;29654;50.784;20.604;2022-08-19T21:44:21;7.55;;;6.70;;
43990;SDS011;29654;50.784;20.604;2022-08-19T21:49:25;7.80;;;7.10;;
43990;SDS011;29654;50.784;20.604;2022-08-19T21:54:29;8.13;;;7.35;;
43990;SDS011;29654;50.784;20.604;2022-08-19T21:59:34;7.72;;;6.90;;
43990;SDS011;29654;50.784;20.604;2022-08-19T22:04:38;7.43;;;6.72;;
43990;SDS011;29654;50.784;20.604;2022-08-19T22:09:42;7.72;;;7.07;;
43990;SDS011;29654;50.784;20.604;2022-08-19T22:14:48;7.78;;;7.18;;
43990;SDS011;29654;50.784;20.604;2022-08-19T22:19:52;8.05;;;7.30;;
43990;SDS011;29654;50.784;20.604;2022-08-19T22:24:59;9.88;;;7.47;;
43990;SDS011;29654;50.784;20.604;2022-08-19T22:30:10;7.72;;;7.03;;
43990;SDS011;29654;50.784;20.604;2022-08-19T22:35:21;7.72;;;7.00;;
43990;SDS011;29654;50.784;20.604;2022-08-19T22:40:28;7.07;;;6.43;;
43990;SDS011;29654;50.784;20.604;2022-08-19T22:45:33;7.50;;;6.80;;
43990;SDS011;29654;50.784;20.604;2022-08-19T22:50:38;7.88;;;7.28;;
43990;SDS011;29654;50.784;20.604;2022-08-19T22:55:44;9.82;;;6.85;;
43990;SDS011;29654;50.784;20.604;2022-08-19T23:00:49;7.78;;;7.05;;
43990;SDS011;29654;50.784;20.604;2022-08-19T23:05:53;7.65;;;7.00;;
43990;SDS011;29654;50.784;20.604;2022-08-19T23:10:58;7.80;;;7.07;;
43990;SDS011;29654;50.784;20.604;2022-08-19T23:16:04;8.00;;;7.40;;
43990;SDS011;29654;50.784;20.604;2022-08-19T23:21:08;8.05;;;6.65;;
43990;SDS011;29654;50.784;20.604;2022-08-19T23:26:14;6.07;;;5.47;;
43990;SDS011;29654;50.784;20.604;2022-08-19T23:31:18;7.18;;;6.55;;
43990;SDS011;29654;50.784;20.604;2022-08-19T23:36:22;8.13;;;7.43;;
43990;SDS011;29654;50.784;20.604;2022-08-19T23:41:26;7.80;;;7.13;;
43990;SDS011;29654;50.784;20.604;2022-08-19T23:46:30;7.78;;;6.95;;
43990;SDS011;29654;50.784;20.604;2022-08-19T23:51:33;8.05;;;7.25;;
43990;SDS011;29654;50.784;20.604;2022-08-19T23:56:36;8.27;;;7.63;;
